Time,TemperatureF,DewpointF,PressureIn,WindDirection,WindDirectionDegrees,WindSpeedMPH,WindSpeedGustMPH,Humidity,HourlyPrecipIn,Conditions,Clouds,dailyrainin,SolarRadiationWatts/m^2,SoftwareType,DateUTC
2013-10-05 00:04:00,58.9,8.0,30.17,ESE,114,13.0,-999.0,13,-99.99,,,0.00,0,weatherlink.com 1.10,2013-10-05 07:04:00,
2013-10-05 00:19:00,58.6,9.0,30.17,ESE,109,15.0,-999.0,14,-99.99,,,0.00,0,weatherlink.com 1.10,2013-10-05 07:19:00,
2013-10-05 00:34:00,57.8,9.0,30.17,ESE,104,15.0,-999.0,14,-99.99,,,0.00,0,weatherlink.com 1.10,2013-10-05 07:34:00,
2013-10-05 00:49:00,58.2,9.0,30.17,ESE,115,13.0,-999.0,14,-99.99,,,0.00,0,weatherlink.com 1.10,2013-10-05 07:49:00,
2013-10-05 01:04:00,57.9,10.0,30.17,SSE,150,13.0,-999.0,15,-99.99,,,0.00,0,weatherlink.com 1.10,2013-10-05 08:04:00,
2013-10-05 01:19:00,57.8,10.0,30.17,ESE,105,9.0,-999.0,15,-99.99,,,0.00,0,weatherlink.com 1.10,2013-10-05 08:19:00,
2013-10-05 01:34:00,57.4,10.0,30.18,ESE,103,16.0,-999.0,15,-99.99,,,0.00,0,weatherlink.com 1.10,2013-10-05 08:34:00,
2013-10-05 01:49:00,57.2,10.0,30.18,ESE,107,14.0,-999.0,15,-99.99,,,0.00,0,weatherlink.com 1.10,2013-10-05 08:49:00,
2013-10-05 02:04:00,56.9,11.0,30.18,SE,138,14.0,-999.0,16,-99.99,,,0.00,0,weatherlink.com 1.10,2013-10-05 09:04:00,
2013-10-05 02:19:00,56.5,12.0,30.18,ESE,123,14.0,-999.0,17,-99.99,,,0.00,0,weatherlink.com 1.10,2013-10-05 09:19:00,
2013-10-05 02:34:00,56.1,12.0,30.18,ESE,114,14.0,-999.0,17,-99.99,,,0.00,0,weatherlink.com 1.10,2013-10-05 09:34:00,
2013-10-05 02:49:00,56.0,12.0,30.18,SE,128,15.0,-999.0,17,-99.99,,,0.00,0,weatherlink.com 1.10,2013-10-05 09:49:00,
2013-10-05 03:04:00,56.2,13.0,30.18,ESE,119,12.0,-999.0,18,-99.99,,,0.00,0,weatherlink.com 1.10,2013-10-05 10:04:00,
2013-10-05 03:19:00,56.2,13.0,30.18,SE,128,14.0,-999.0,18,-99.99,,,0.00,0,weatherlink.com 1.10,2013-10-05 10:19:00,
2013-10-05 03:34:00,56.0,14.0,30.18,ESE,110,18.0,-999.0,19,-99.99,,,0.00,0,weatherlink.com 1.10,2013-10-05 10:34:00,
2013-10-05 03:49:00,55.5,15.0,30.18,ESE,111,14.0,-999.0,20,-99.99,,,0.00,0,weatherlink.com 1.10,2013-10-05 10:49:00,
2013-10-05 04:04:00,54.9,15.0,30.18,ESE,102,7.0,-999.0,21,-99.99,,,0.00,0,weatherlink.com 1.10,2013-10-05 11:04:00,
2013-10-05 04:19:00,54.8,15.0,30.18,ESE,102,11.0,-999.0,21,-99.99,,,0.00,0,weatherlink.com 1.10,2013-10-05 11:19:00,
2013-10-05 04:34:00,54.6,15.0,30.18,SE,126,11.0,-999.0,21,-99.99,,,0.00,0,weatherlink.com 1.10,2013-10-05 11:34:00,
2013-10-05 04:49:00,54.7,16.0,30.19,ESE,107,9.0,-999.0,22,-99.99,,,0.00,0,weatherlink.com 1.10,2013-10-05 11:49:00,
2013-10-05 05:04:00,54.4,16.0,30.19,East,98,15.0,-999.0,22,-99.99,,,0.00,0,weatherlink.com 1.10,2013-10-05 12:04:00,
2013-10-05 05:19:00,54.4,16.0,30.19,ESE,113,19.0,-999.0,22,-99.99,,,0.00,0,weatherlink.com 1.10,2013-10-05 12:19:00,
2013-10-05 05:34:00,54.1,16.0,30.20,East,94,4.0,-999.0,22,-99.99,,,0.00,0,weatherlink.com 1.10,2013-10-05 12:34:00,
2013-10-05 05:49:00,53.8,16.0,30.19,ESE,106,16.0,-999.0,22,-99.99,,,0.00,0,weatherlink.com 1.10,2013-10-05 12:49:00,
2013-10-05 06:04:00,53.2,16.0,30.20,East,79,3.0,-999.0,23,-99.99,,,0.00,0,weatherlink.com 1.10,2013-10-05 13:04:00,
2013-10-05 06:19:00,52.2,16.0,30.21,ESE,102,14.0,-999.0,24,-99.99,,,0.00,0,weatherlink.com 1.10,2013-10-05 13:19:00,
2013-10-05 06:35:00,53.4,16.0,30.22,ESE,102,13.0,-999.0,23,-99.99,,,0.00,0,weatherlink.com 1.10,2013-10-05 13:35:00,
2013-10-05 06:50:00,53.0,16.0,30.23,ESE,102,8.0,-999.0,23,-99.99,,,0.00,0,weatherlink.com 1.10,2013-10-05 13:50:00,
2013-10-05 07:05:00,53.1,16.0,30.24,ESE,106,12.0,-999.0,23,-99.99,,,0.00,9,weatherlink.com 1.10,2013-10-05 14:05:00,
2013-10-05 07:20:00,53.5,15.0,30.24,ESE,119,13.0,-999.0,22,-99.99,,,0.00,14,weatherlink.com 1.10,2013-10-05 14:20:00,
2013-10-05 07:35:00,54.2,16.0,30.25,ESE,105,15.0,-999.0,22,-99.99,,,0.00,72,weatherlink.com 1.10,2013-10-05 14:35:00,
2013-10-05 07:50:00,55.1,15.0,30.24,ESE,111,9.0,-999.0,20,-99.99,,,0.00,123,weatherlink.com 1.10,2013-10-05 14:50:00,
2013-10-05 08:05:00,55.8,15.0,30.25,SE,137,10.0,-999.0,20,-99.99,,,0.00,176,weatherlink.com 1.10,2013-10-05 15:05:00,
2013-10-05 08:20:00,56.5,14.0,30.25,SE,130,23.0,-999.0,19,-99.99,,,0.00,230,weatherlink.com 1.10,2013-10-05 15:20:00,
2013-10-05 08:35:00,57.4,15.0,30.25,ESE,121,15.0,-999.0,19,-99.99,,,0.00,278,weatherlink.com 1.10,2013-10-05 15:35:00,
2013-10-05 08:50:00,58.1,15.0,30.24,SE,126,16.0,-999.0,18,-99.99,,,0.00,320,weatherlink.com 1.10,2013-10-05 15:50:00,
2013-10-05 09:05:00,58.6,14.0,30.25,ESE,117,13.0,-999.0,17,-99.99,,,0.00,364,weatherlink.com 1.10,2013-10-05 16:05:00,
2013-10-05 09:20:00,59.4,14.0,30.25,SE,126,16.0,-999.0,17,-99.99,,,0.00,410,weatherlink.com 1.10,2013-10-05 16:20:00,
2013-10-05 09:35:00,60.1,12.0,30.25,East,98,20.0,-999.0,15,-99.99,,,0.00,446,weatherlink.com 1.10,2013-10-05 16:35:00,
2013-10-05 09:50:00,60.9,13.0,30.25,ESE,109,12.0,-999.0,15,-99.99,,,0.00,490,weatherlink.com 1.10,2013-10-05 16:50:00,
2013-10-05 10:05:00,61.8,12.0,30.25,ESE,104,14.0,-999.0,14,-99.99,,,0.00,524,weatherlink.com 1.10,2013-10-05 17:05:00,
2013-10-05 10:20:00,62.3,11.0,30.25,ESE,112,18.0,-999.0,13,-99.99,,,0.00,561,weatherlink.com 1.10,2013-10-05 17:20:00,
2013-10-05 10:36:00,62.8,11.0,30.25,ESE,117,15.0,-999.0,13,-99.99,,,0.00,591,weatherlink.com 1.10,2013-10-05 17:36:00,
2013-10-05 10:51:00,63.4,12.0,30.25,ESE,105,18.0,-999.0,13,-99.99,,,0.00,619,weatherlink.com 1.10,2013-10-05 17:51:00,
2013-10-05 11:06:00,63.3,11.0,30.25,ESE,105,12.0,-999.0,13,-99.99,,,0.00,645,weatherlink.com 1.10,2013-10-05 18:06:00,
2013-10-05 11:21:00,64.2,10.0,30.25,SE,134,23.0,-999.0,12,-99.99,,,0.00,664,weatherlink.com 1.10,2013-10-05 18:21:00,
2013-10-05 11:36:00,65.0,11.0,30.25,ESE,115,14.0,-999.0,12,-99.99,,,0.00,686,weatherlink.com 1.10,2013-10-05 18:36:00,
2013-10-05 11:51:00,65.0,11.0,30.25,ENE,68,17.0,-999.0,12,-99.99,,,0.00,700,weatherlink.com 1.10,2013-10-05 18:51:00,
2013-10-05 12:06:00,66.2,10.0,30.24,ESE,109,19.0,-999.0,11,-99.99,,,0.00,710,weatherlink.com 1.10,2013-10-05 19:06:00,
2013-10-05 12:21:00,66.4,10.0,30.24,East,100,23.0,-999.0,11,-99.99,,,0.00,717,weatherlink.com 1.10,2013-10-05 19:21:00,
2013-10-05 12:36:00,66.8,8.0,30.23,East,92,12.0,-999.0,10,-99.99,,,0.00,721,weatherlink.com 1.10,2013-10-05 19:36:00,
2013-10-05 12:51:00,67.7,9.0,30.23,ESE,123,6.0,-999.0,10,-99.99,,,0.00,721,weatherlink.com 1.10,2013-10-05 19:51:00,
2013-10-05 13:06:00,68.2,9.0,30.23,SE,141,12.0,-999.0,10,-99.99,,,0.00,715,weatherlink.com 1.10,2013-10-05 20:06:00,
2013-10-05 13:21:00,68.4,7.0,30.22,East,92,14.0,-999.0,9,-99.99,,,0.00,705,weatherlink.com 1.10,2013-10-05 20:21:00,
2013-10-05 13:36:00,69.4,5.0,30.21,East,101,20.0,-999.0,8,-99.99,,,0.00,696,weatherlink.com 1.10,2013-10-05 20:36:00,
2013-10-05 13:51:00,69.3,5.0,30.21,ESE,110,20.0,-999.0,8,-99.99,,,0.00,677,weatherlink.com 1.10,2013-10-05 20:51:00,
2013-10-05 14:06:00,70.0,6.0,30.20,ESE,121,15.0,-999.0,8,-99.99,,,0.00,659,weatherlink.com 1.10,2013-10-05 21:06:00,
2013-10-05 14:21:00,70.1,3.0,30.20,ESE,111,19.0,-999.0,7,-99.99,,,0.00,635,weatherlink.com 1.10,2013-10-05 21:21:00,
2013-10-05 14:36:00,70.2,3.0,30.20,ESE,113,18.0,-999.0,7,-99.99,,,0.00,612,weatherlink.com 1.10,2013-10-05 21:36:00,
2013-10-05 14:51:00,70.4,3.0,30.20,ESE,103,13.0,-999.0,7,-99.99,,,0.00,582,weatherlink.com 1.10,2013-10-05 21:51:00,
2013-10-05 15:06:00,70.5,3.0,30.19,ESE,103,21.0,-999.0,7,-99.99,,,0.00,547,weatherlink.com 1.10,2013-10-05 22:06:00,
2013-10-05 15:21:00,70.9,4.0,30.19,ESE,111,13.0,-999.0,7,-99.99,,,0.00,515,weatherlink.com 1.10,2013-10-05 22:21:00,
2013-10-05 15:36:00,70.5,0.0,30.18,SE,144,15.0,-999.0,6,-99.99,,,0.00,476,weatherlink.com 1.10,2013-10-05 22:36:00,
2013-10-05 15:51:00,70.4,0.0,30.18,ESE,109,16.0,-999.0,6,-99.99,,,0.00,438,weatherlink.com 1.10,2013-10-05 22:51:00,
2013-10-05 16:06:00,70.3,0.0,30.19,ESE,115,11.0,-999.0,6,-99.99,,,0.00,394,weatherlink.com 1.10,2013-10-05 23:06:00,
2013-10-05 16:21:00,70.2,0.0,30.18,SE,129,15.0,-999.0,6,-99.99,,,0.00,352,weatherlink.com 1.10,2013-10-05 23:21:00,
2013-10-05 16:36:00,70.2,0.0,30.18,ESE,105,12.0,-999.0,6,-99.99,,,0.00,309,weatherlink.com 1.10,2013-10-05 23:36:00,
2013-10-05 16:51:00,70.0,-1.0,30.18,SE,141,15.0,-999.0,6,-99.99,,,0.00,264,weatherlink.com 1.10,2013-10-05 23:51:00,
2013-10-05 17:06:00,69.5,-1.0,30.18,ESE,121,12.0,-999.0,6,-99.99,,,0.00,218,weatherlink.com 1.10,2013-10-06 00:06:00,
2013-10-05 17:22:00,69.5,-1.0,30.18,ESE,111,16.0,-999.0,6,-99.99,,,0.00,171,weatherlink.com 1.10,2013-10-06 00:22:00,
2013-10-05 17:37:00,69.1,-1.0,30.18,ESE,105,13.0,-999.0,6,-99.99,,,0.00,118,weatherlink.com 1.10,2013-10-06 00:37:00,
2013-10-05 17:52:00,68.5,-2.0,30.17,ESE,107,14.0,-999.0,6,-99.99,,,0.00,69,weatherlink.com 1.10,2013-10-06 00:52:00,
2013-10-05 18:07:00,67.8,1.0,30.17,ESE,112,13.0,-999.0,7,-99.99,,,0.00,28,weatherlink.com 1.10,2013-10-06 01:07:00,
2013-10-05 18:22:00,66.9,-3.0,30.17,ESE,115,11.0,-999.0,6,-99.99,,,0.00,9,weatherlink.com 1.10,2013-10-06 01:22:00,
2013-10-05 18:37:00,65.5,-1.0,30.18,ESE,119,8.0,-999.0,7,-99.99,,,0.00,0,weatherlink.com 1.10,2013-10-06 01:37:00,
2013-10-05 18:52:00,64.9,-4.0,30.18,ESE,109,9.0,-999.0,6,-99.99,,,0.00,0,weatherlink.com 1.10,2013-10-06 01:52:00,
2013-10-05 19:07:00,64.6,-1.0,30.18,ESE,113,5.0,-999.0,7,-99.99,,,0.00,0,weatherlink.com 1.10,2013-10-06 02:07:00,
2013-10-05 19:22:00,64.2,-2.0,30.19,ESE,109,7.0,-999.0,7,-99.99,,,0.00,0,weatherlink.com 1.10,2013-10-06 02:22:00,
2013-10-05 19:37:00,63.6,-2.0,30.19,ESE,112,4.0,-999.0,7,-99.99,,,0.00,0,weatherlink.com 1.10,2013-10-06 02:37:00,
2013-10-05 19:52:00,63.2,1.0,30.19,ESE,116,7.0,-999.0,8,-99.99,,,0.00,0,weatherlink.com 1.10,2013-10-06 02:52:00,
2013-10-05 20:07:00,63.2,1.0,30.19,ESE,107,7.0,-999.0,8,-99.99,,,0.00,0,weatherlink.com 1.10,2013-10-06 03:07:00,
2013-10-05 20:22:00,62.7,3.0,30.19,ESE,108,12.0,-999.0,9,-99.99,,,0.00,0,weatherlink.com 1.10,2013-10-06 03:22:00,
2013-10-05 20:38:00,62.4,5.0,30.19,ESE,111,11.0,-999.0,10,-99.99,,,0.00,0,weatherlink.com 1.10,2013-10-06 03:38:00,
2013-10-05 20:53:00,62.4,5.0,30.19,ESE,106,13.0,-999.0,10,-99.99,,,0.00,0,weatherlink.com 1.10,2013-10-06 03:53:00,
2013-10-05 21:08:00,62.0,7.0,30.19,ESE,121,13.0,-999.0,11,-99.99,,,0.00,0,weatherlink.com 1.10,2013-10-06 04:08:00,
2013-10-05 21:23:00,61.7,6.0,30.19,ESE,115,14.0,-999.0,11,-99.99,,,0.00,0,weatherlink.com 1.10,2013-10-06 04:23:00,
2013-10-05 21:38:00,61.5,6.0,30.19,ESE,117,11.0,-999.0,11,-99.99,,,0.00,0,weatherlink.com 1.10,2013-10-06 04:38:00,
2013-10-05 21:53:00,61.0,6.0,30.19,ESE,107,14.0,-999.0,11,-99.99,,,0.00,0,weatherlink.com 1.10,2013-10-06 04:53:00,
2013-10-05 22:08:00,61.4,6.0,30.19,ESE,111,9.0,-999.0,11,-99.99,,,0.00,0,weatherlink.com 1.10,2013-10-06 05:08:00,
2013-10-05 22:23:00,62.0,5.0,30.19,ESE,105,14.0,-999.0,10,-99.99,,,0.00,0,weatherlink.com 1.10,2013-10-06 05:23:00,
2013-10-05 22:38:00,62.6,5.0,30.18,ESE,111,16.0,-999.0,10,-99.99,,,0.00,0,weatherlink.com 1.10,2013-10-06 05:38:00,
2013-10-05 22:53:00,62.5,5.0,30.18,ESE,103,13.0,-999.0,10,-99.99,,,0.00,0,weatherlink.com 1.10,2013-10-06 05:53:00,
2013-10-05 23:08:00,62.3,5.0,30.18,SE,130,12.0,-999.0,10,-99.99,,,0.00,0,weatherlink.com 1.10,2013-10-06 06:08:00,
2013-10-05 23:23:00,62.2,5.0,30.17,ESE,114,15.0,-999.0,10,-99.99,,,0.00,0,weatherlink.com 1.10,2013-10-06 06:23:00,
2013-10-05 23:38:00,61.9,5.0,30.17,SE,130,16.0,-999.0,10,-99.99,,,0.00,0,weatherlink.com 1.10,2013-10-06 06:38:00,
2013-10-05 23:53:00,62.0,5.0,30.17,ESE,112,12.0,-999.0,10,-99.99,,,0.00,0,weatherlink.com 1.10,2013-10-06 06:53:00,